createdAt,value
2023-03-12T00:01:42.065Z,0.26
2023-03-12T00:04:12.797Z,0.25
2023-03-12T00:06:43.533Z,0.25
2023-03-12T00:09:14.236Z,0.25
2023-03-12T00:11:44.892Z,0.25
2023-03-12T00:14:15.583Z,0.22
2023-03-12T00:16:46.278Z,0.21
2023-03-12T00:19:16.880Z,0.20
2023-03-12T00:21:47.601Z,0.21
2023-03-12T00:24:18.590Z,0.21
2023-03-12T00:26:49.495Z,0.21
2023-03-12T00:29:20.067Z,0.19
2023-03-12T00:31:52.216Z,0.20
2023-03-12T00:34:23.287Z,0.20
2023-03-12T00:36:54.609Z,0.21
2023-03-12T00:39:25.501Z,0.24
2023-03-12T00:41:56.881Z,0.28
2023-03-12T00:44:27.925Z,0.31
2023-03-12T00:46:58.668Z,0.32
2023-03-12T00:49:29.473Z,0.32
2023-03-12T00:52:00.196Z,0.32
2023-03-12T00:54:30.955Z,0.34
2023-03-12T00:57:01.669Z,0.35
2023-03-12T00:59:33.087Z,0.35
2023-03-12T01:02:03.867Z,0.34
2023-03-12T01:04:34.591Z,0.30
2023-03-12T01:07:05.525Z,0.28
2023-03-12T01:09:36.572Z,0.25
2023-03-12T01:12:08.563Z,0.22
2023-03-12T01:14:39.327Z,0.20
2023-03-12T01:17:10.368Z,0.19
2023-03-12T01:19:41.165Z,0.16
2023-03-12T01:22:12.174Z,0.12
2023-03-12T01:24:42.829Z,0.08
2023-03-12T01:27:13.465Z,0.05
2023-03-12T01:29:44.268Z,0.05
2023-03-12T01:32:15.185Z,0.06
2023-03-12T01:34:46.195Z,0.07
2023-03-12T01:37:17.061Z,0.08
2023-03-12T01:39:48.224Z,0.11
2023-03-12T01:42:18.977Z,0.13
2023-03-12T01:44:56.217Z,0.16
2023-03-12T01:47:31.902Z,0.19
2023-03-12T01:50:04.906Z,0.21
2023-03-12T01:52:39.303Z,0.22
2023-03-12T01:55:14.361Z,0.25
2023-03-12T01:57:52.990Z,0.28
2023-03-12T02:00:26.287Z,0.28
2023-03-12T02:03:03.385Z,0.30
2023-03-12T02:05:43.747Z,0.30
2023-03-12T02:08:15.964Z,0.31
2023-03-12T02:10:47.356Z,0.33
2023-03-12T02:13:18.867Z,0.36
2023-03-12T02:15:50.722Z,0.37
2023-03-12T02:18:23.921Z,0.39
2023-03-12T02:21:03.406Z,0.40
2023-03-12T02:23:39.493Z,0.40
2023-03-12T02:26:12.259Z,0.39
2023-03-12T02:28:45.938Z,0.39
2023-03-12T02:31:21.955Z,0.37
2023-03-12T02:33:55.938Z,0.36
2023-03-12T02:36:26.794Z,0.34
2023-03-12T02:38:58.478Z,0.34
2023-03-12T02:41:31.229Z,0.30
2023-03-12T02:44:06.223Z,0.26
2023-03-12T02:46:40.596Z,0.21
2023-03-12T02:49:13.294Z,0.21
2023-03-12T02:51:45.897Z,0.20
2023-03-12T02:54:18.122Z,0.17
2023-03-12T02:56:49.885Z,0.15
2023-03-12T02:59:21.898Z,0.12
2023-03-12T03:01:57.778Z,0.10
2023-03-12T03:04:29.580Z,0.09
2023-03-12T03:07:00.437Z,0.07
2023-03-12T03:09:31.408Z,0.06
2023-03-12T03:12:02.537Z,0.06
2023-03-12T03:14:34.554Z,0.06
2023-03-12T03:17:05.703Z,0.04
2023-03-12T03:19:36.578Z,0.06
2023-03-12T03:22:09.745Z,0.07
2023-03-12T03:24:40.499Z,0.07
2023-03-12T03:27:11.530Z,0.05
2023-03-12T03:29:42.842Z,0.04
2023-03-12T03:32:13.901Z,0.04
2023-03-12T03:34:45.097Z,0.04
2023-03-12T03:37:16.358Z,0.03
2023-03-12T03:39:47.212Z,0.01
2023-03-12T03:42:17.868Z,-0.01
2023-03-12T03:44:48.981Z,-0.02
2023-03-12T03:47:19.800Z,-0.04
2023-03-12T03:49:50.905Z,-0.06
2023-03-12T03:52:25.164Z,-0.08
2023-03-12T03:54:57.118Z,-0.14
2023-03-12T03:57:28.391Z,-0.16
2023-03-12T04:00:03.499Z,-0.16
2023-03-12T04:02:55.412Z,-0.16
2023-03-12T04:05:26.408Z,-0.16
2023-03-12T04:08:03.073Z,-0.17
2023-03-12T04:10:34.545Z,-0.21
2023-03-12T04:13:05.522Z,-0.18
2023-03-12T04:15:36.226Z,-0.19
2023-03-12T04:18:07.392Z,-0.19
2023-03-12T04:20:38.256Z,-0.23
2023-03-12T04:23:09.092Z,-0.26
2023-03-12T04:25:40.610Z,-0.29
2023-03-12T04:28:11.592Z,-0.31
2023-03-12T04:30:42.625Z,-0.33
2023-03-12T04:33:13.241Z,-0.31
2023-03-12T04:35:53.098Z,-0.31
2023-03-12T04:38:25.594Z,-0.30
2023-03-12T04:41:03.020Z,-0.30
2023-03-12T04:43:35.021Z,-0.25
2023-03-12T04:46:06.934Z,-0.26
2023-03-12T04:48:38.326Z,-0.27
2023-03-12T04:51:10.187Z,-0.25
2023-03-12T04:53:41.617Z,-0.24
2023-03-12T04:56:13.967Z,-0.24
2023-03-12T04:58:45.251Z,-0.21
2023-03-12T05:01:26.851Z,-0.20
2023-03-12T05:03:57.902Z,-0.18
2023-03-12T05:06:29.396Z,-0.16
2023-03-12T05:09:00.450Z,-0.17
2023-03-12T05:11:31.565Z,-0.22
2023-03-12T05:14:02.946Z,-0.25
2023-03-12T05:16:34.034Z,-0.27
2023-03-12T05:19:04.722Z,-0.34
2023-03-12T05:21:35.485Z,-0.40
2023-03-12T05:24:06.766Z,-0.45
2023-03-12T05:26:38.106Z,-0.48
2023-03-12T05:29:29.702Z,-0.48
2023-03-12T05:32:00.595Z,-0.48
2023-03-12T05:34:31.596Z,-0.46
2023-03-12T05:37:02.671Z,-0.45
2023-03-12T05:39:33.634Z,-0.44
2023-03-12T05:42:08.548Z,-0.43
2023-03-12T05:44:39.777Z,-0.45
2023-03-12T05:47:12.194Z,-0.40
2023-03-12T05:49:44.226Z,-0.34
2023-03-12T05:52:15.707Z,-0.26
2023-03-12T05:54:46.593Z,-0.19
2023-03-12T05:57:17.380Z,-0.13
2023-03-12T05:59:48.145Z,-0.08
2023-03-12T06:02:18.893Z,-0.04
2023-03-12T06:04:49.586Z,-0.03
2023-03-12T06:07:20.228Z,-0.01
2023-03-12T06:09:50.958Z,-0.01
2023-03-12T06:12:21.741Z,0.02
2023-03-12T06:14:52.361Z,0.06
2023-03-12T06:17:23.021Z,0.10
2023-03-12T06:19:54.749Z,0.14
2023-03-12T06:22:26.398Z,0.20
2023-03-12T06:24:57.518Z,0.31
2023-03-12T06:27:28.592Z,0.50
2023-03-12T06:29:59.286Z,0.76
2023-03-12T06:32:30.059Z,1.12
2023-03-12T06:35:01.532Z,1.50
2023-03-12T06:37:32.306Z,1.88
2023-03-12T06:40:02.906Z,2.13
2023-03-12T06:42:33.525Z,2.27
2023-03-12T06:45:04.873Z,2.49
2023-03-12T06:47:35.519Z,2.80
2023-03-12T06:50:06.782Z,3.18
2023-03-12T06:52:37.467Z,3.51
2023-03-12T06:55:09.652Z,3.81
2023-03-12T06:57:40.252Z,4.12
2023-03-12T07:00:13.708Z,4.14
2023-03-12T07:02:44.303Z,4.12
2023-03-12T07:05:15.209Z,4.26
2023-03-12T07:07:46.025Z,4.56
2023-03-12T07:10:16.912Z,4.80
2023-03-12T07:12:47.833Z,4.95
2023-03-12T07:15:18.477Z,5.13
2023-03-12T07:17:49.053Z,5.47
2023-03-12T07:20:20.561Z,5.76
2023-03-12T07:22:51.657Z,5.98
2023-03-12T07:25:22.592Z,6.15
2023-03-12T07:27:53.587Z,6.24
2023-03-12T07:30:24.968Z,6.34
2023-03-12T07:32:55.633Z,6.39
2023-03-12T07:35:26.360Z,6.55
2023-03-12T07:37:57.371Z,6.72
2023-03-12T07:40:28.555Z,6.72
2023-03-12T07:43:00.887Z,6.78
2023-03-12T07:45:32.145Z,6.84
2023-03-12T07:48:03.131Z,6.95
2023-03-12T07:50:33.994Z,7.07
2023-03-12T07:53:05.804Z,7.53
2023-03-12T07:55:37.467Z,8.08
2023-03-12T07:58:08.398Z,8.58
2023-03-12T08:00:40.124Z,8.75
2023-03-12T08:03:11.376Z,8.53
2023-03-12T08:05:43.896Z,8.34
2023-03-12T08:08:16.309Z,8.15
2023-03-12T08:10:47.722Z,7.91
2023-03-12T08:13:19.095Z,7.53
2023-03-12T08:15:50.076Z,7.28
2023-03-12T08:18:21.660Z,7.03
2023-03-12T08:20:55.203Z,6.74
2023-03-12T08:23:26.637Z,6.63
2023-03-12T08:25:57.550Z,6.58
2023-03-12T08:28:28.333Z,6.64
2023-03-12T08:31:02.392Z,6.82
2023-03-12T08:33:33.366Z,6.95
2023-03-12T08:36:04.376Z,7.06
2023-03-12T08:38:35.140Z,7.09
2023-03-12T08:41:06.077Z,7.13
2023-03-12T08:43:36.854Z,7.32
2023-03-12T08:46:09.025Z,7.51
2023-03-12T08:48:41.826Z,7.61
2023-03-12T08:51:14.302Z,7.54
2023-03-12T08:53:46.502Z,7.47
2023-03-12T08:56:17.477Z,7.34
2023-03-12T08:58:48.236Z,7.33
2023-03-12T09:01:18.898Z,7.29
2023-03-12T09:03:51.099Z,7.13
2023-03-12T09:06:22.290Z,6.93
2023-03-12T09:08:52.981Z,6.77
2023-03-12T09:11:23.684Z,6.73
2023-03-12T09:14:28.033Z,6.74
2023-03-12T09:16:45.777Z,6.80
2023-03-12T09:19:16.846Z,6.76
2023-03-12T09:21:49.798Z,6.76
2023-03-12T09:24:20.502Z,6.97
2023-03-12T09:26:51.507Z,7.19
2023-03-12T09:29:23.591Z,7.36
2023-03-12T09:31:56.204Z,7.51
2023-03-12T09:34:26.971Z,7.52
2023-03-12T09:36:57.762Z,7.52
2023-03-12T09:39:28.688Z,7.56
2023-03-12T09:41:59.477Z,7.65
2023-03-12T09:44:36.372Z,7.87
2023-03-12T09:47:17.542Z,8.18
2023-03-12T09:49:50.977Z,8.54
2023-03-12T09:52:26.503Z,8.95
2023-03-12T09:55:04.091Z,9.12
2023-03-12T09:57:34.761Z,9.20
2023-03-12T10:00:10.589Z,9.13
2023-03-12T10:03:22.295Z,8.96
2023-03-12T10:06:05.324Z,8.84
2023-03-12T10:08:47.670Z,8.91
2023-03-12T10:11:32.240Z,8.90
2023-03-12T10:14:31.164Z,8.85
2023-03-12T10:17:20.332Z,8.86
2023-03-12T10:20:07.897Z,8.75
2023-03-12T10:22:51.668Z,8.60
2023-03-12T10:25:28.964Z,8.46
2023-03-12T10:28:11.779Z,8.31
2023-03-12T10:30:47.650Z,8.12
2023-03-12T10:33:21.134Z,7.99
2023-03-12T10:35:53.745Z,7.91
2023-03-12T10:38:27.911Z,8.02
2023-03-12T10:40:58.731Z,8.19
2023-03-12T10:43:29.921Z,8.37
2023-03-12T10:46:15.119Z,8.53
2023-03-12T10:48:45.683Z,8.72
2023-03-12T10:51:16.368Z,8.78
2023-03-12T10:53:48.124Z,8.74
2023-03-12T10:56:21.091Z,8.66
2023-03-12T10:58:53.640Z,8.61
2023-03-12T11:01:26.629Z,8.51
2023-03-12T11:04:16.560Z,8.48
2023-03-12T11:07:07.120Z,8.44
2023-03-12T11:09:37.937Z,8.37
2023-03-12T11:12:26.389Z,8.32
2023-03-12T11:14:57.337Z,8.26
2023-03-12T11:17:32.950Z,8.20
2023-03-12T11:20:25.950Z,8.14
2023-03-12T11:22:56.920Z,8.05
2023-03-12T11:25:29.833Z,8.01
2023-03-12T11:28:02.475Z,8.05
2023-03-12T11:30:39.731Z,8.12
2023-03-12T11:33:12.396Z,8.17
2023-03-12T11:35:54.183Z,8.23
2023-03-12T11:38:32.924Z,8.30
2023-03-12T11:41:17.469Z,8.35
2023-03-12T11:43:59.923Z,8.40
2023-03-12T11:46:42.651Z,8.46
2023-03-12T11:49:33.146Z,8.47
2023-03-12T11:52:14.873Z,8.50
2023-03-12T11:54:56.668Z,8.52
2023-03-12T11:57:37.234Z,8.51
2023-03-12T12:00:17.400Z,8.53
2023-03-12T12:03:08.955Z,8.48
2023-03-12T12:05:56.766Z,8.47
2023-03-12T12:08:54.217Z,8.54
2023-03-12T12:11:33.829Z,8.60
2023-03-12T12:14:16.267Z,8.65
2023-03-12T12:17:01.802Z,8.64
2023-03-12T12:19:48.333Z,8.57
2023-03-12T12:22:40.777Z,8.51
2023-03-12T12:25:47.959Z,8.49
2023-03-12T12:28:53.988Z,8.48
2023-03-12T12:31:33.654Z,8.41
2023-03-12T12:34:23.486Z,8.37
2023-03-12T12:37:05.246Z,8.21
2023-03-12T12:39:39.776Z,8.13
2023-03-12T12:42:19.033Z,8.09
2023-03-12T12:44:53.140Z,8.10
2023-03-12T12:47:34.021Z,8.10
2023-03-12T12:50:06.381Z,8.09
2023-03-12T12:52:37.402Z,8.03
2023-03-12T12:55:16.463Z,7.93
2023-03-12T12:57:50.777Z,7.86
2023-03-12T13:00:39.137Z,7.82
2023-03-12T13:03:17.607Z,7.81
2023-03-12T13:05:57.095Z,7.81
2023-03-12T13:08:56.785Z,7.77
2023-03-12T13:11:31.258Z,7.73
2023-03-12T13:14:35.353Z,7.71
2023-03-12T13:17:33.618Z,7.67
2023-03-12T13:20:17.411Z,7.64
2023-03-12T13:23:10.493Z,7.59
2023-03-12T13:25:58.290Z,7.53
2023-03-12T13:29:11.272Z,7.49
2023-03-12T13:31:44.803Z,7.45
2023-03-12T13:34:47.580Z,7.42
2023-03-12T13:37:44.175Z,7.36
2023-03-12T13:40:53.406Z,7.31
2023-03-12T13:43:56.506Z,7.27
2023-03-12T13:46:34.001Z,7.24
2023-03-12T13:49:12.414Z,7.22
2023-03-12T13:54:44.922Z,7.22
2023-03-12T13:57:27.390Z,7.22
2023-03-12T13:59:59.740Z,7.25
2023-03-12T14:02:36.084Z,7.26
2023-03-12T14:05:10.655Z,7.24
2023-03-12T14:07:58.860Z,7.22
2023-03-12T14:10:37.862Z,7.18
2023-03-12T14:13:12.827Z,7.12
2023-03-12T14:15:49.552Z,7.10
2023-03-12T14:18:24.642Z,7.06
2023-03-12T14:20:59.278Z,7.01
2023-03-12T14:23:36.177Z,6.98
2023-03-12T14:26:08.509Z,6.95
2023-03-12T14:28:43.146Z,6.92
2023-03-12T14:31:19.645Z,6.90
2023-03-12T14:33:57.470Z,6.82
2023-03-12T14:36:30.324Z,6.76
2023-03-12T14:39:12.334Z,6.75
2023-03-12T14:41:48.360Z,6.74
2023-03-12T14:44:24.909Z,6.70
2023-03-12T14:47:01.377Z,6.67
2023-03-12T14:49:32.786Z,6.64
2023-03-12T14:52:04.399Z,6.62
2023-03-12T14:54:35.106Z,6.58
2023-03-12T14:57:05.862Z,6.54
2023-03-12T14:59:39.093Z,6.47
2023-03-12T15:02:15.250Z,6.36
2023-03-12T15:04:47.593Z,6.27
2023-03-12T15:07:23.453Z,6.17
2023-03-12T15:09:54.957Z,6.09
2023-03-12T15:12:27.725Z,6.05
2023-03-12T15:15:07.352Z,5.99
2023-03-12T15:17:38.776Z,5.92
2023-03-12T15:20:16.392Z,5.86
2023-03-12T15:22:47.896Z,5.80
2023-03-12T15:25:28.216Z,5.75
2023-03-12T15:28:26.185Z,5.65
2023-03-12T15:31:11.801Z,5.56
2023-03-12T15:33:44.133Z,5.50
2023-03-12T15:36:30.347Z,5.49
2023-03-12T15:39:05.716Z,5.48
2023-03-12T15:41:49.084Z,5.46
2023-03-12T15:44:24.537Z,5.44
2023-03-12T15:46:58.287Z,5.42
2023-03-12T15:49:31.224Z,5.38
2023-03-12T15:52:01.689Z,5.37
2023-03-12T15:54:33.027Z,5.36
2023-03-12T15:57:25.856Z,5.36
2023-03-12T16:00:21.819Z,5.35
2023-03-12T16:03:00.959Z,5.33
2023-03-12T16:05:34.723Z,5.29
2023-03-12T16:08:16.114Z,5.24
2023-03-12T16:10:47.537Z,5.25
2023-03-12T16:13:20.429Z,5.27
2023-03-12T16:15:51.584Z,5.28
2023-03-12T16:18:23.999Z,5.30
2023-03-12T16:20:55.666Z,5.33
2023-03-12T16:23:26.569Z,5.35
2023-03-12T16:25:59.456Z,5.36
2023-03-12T16:28:30.901Z,5.39
2023-03-12T16:31:02.035Z,5.41
2023-03-12T16:33:32.961Z,5.39
2023-03-12T16:36:04.018Z,5.39
2023-03-12T16:38:35.060Z,5.40
2023-03-12T16:41:06.234Z,5.43
2023-03-12T16:43:38.667Z,5.43
2023-03-12T16:46:11.200Z,5.45
2023-03-12T16:48:42.308Z,5.47
2023-03-12T16:51:17.085Z,5.46
2023-03-12T16:53:58.477Z,5.46
2023-03-12T16:56:38.154Z,5.46
2023-03-12T16:59:14.090Z,5.47
2023-03-12T17:01:44.844Z,5.47
2023-03-12T17:04:15.630Z,5.47
2023-03-12T17:06:46.320Z,5.48
2023-03-12T17:09:17.003Z,5.48
2023-03-12T17:11:49.396Z,5.48
2023-03-12T17:14:23.324Z,5.47
2023-03-12T17:16:54.091Z,5.45
2023-03-12T17:19:24.823Z,5.45
2023-03-12T17:21:56.261Z,5.45
2023-03-12T17:24:28.209Z,5.45
2023-03-12T17:26:59.122Z,5.45
2023-03-12T17:29:29.778Z,5.45
2023-03-12T17:32:00.564Z,5.45
2023-03-12T17:34:31.261Z,5.46
2023-03-12T17:37:02.652Z,5.48
2023-03-12T17:39:34.929Z,5.49
2023-03-12T17:42:05.757Z,5.52
2023-03-12T17:44:38.950Z,5.54
2023-03-12T17:47:09.799Z,5.57
2023-03-12T17:49:40.459Z,5.61
2023-03-12T17:52:11.197Z,5.64
2023-03-12T17:54:42.075Z,5.68
2023-03-12T17:57:12.775Z,5.72
2023-03-12T17:59:43.368Z,5.73
2023-03-12T18:02:15.662Z,5.74
2023-03-12T18:04:46.532Z,5.76
2023-03-12T18:07:17.523Z,5.78
2023-03-12T18:09:48.754Z,5.82
2023-03-12T18:12:19.604Z,5.85
2023-03-12T18:14:50.350Z,5.88
2023-03-12T18:17:21.147Z,5.91
2023-03-12T18:19:52.174Z,5.96
2023-03-12T18:22:24.416Z,6.04
2023-03-12T18:24:55.176Z,6.08
2023-03-12T18:27:25.867Z,6.12
2023-03-12T18:29:56.635Z,6.14
2023-03-12T18:32:27.637Z,6.15
2023-03-12T18:34:58.337Z,6.17
2023-03-12T18:37:29.095Z,6.19
2023-03-12T18:40:00.001Z,6.21
2023-03-12T18:42:30.682Z,6.21
2023-03-12T18:45:01.311Z,6.22
2023-03-12T18:47:34.832Z,6.23
2023-03-12T18:50:06.253Z,6.24
2023-03-12T18:52:37.089Z,6.26
2023-03-12T18:55:08.812Z,6.28
2023-03-12T18:57:39.432Z,6.30
2023-03-12T19:00:15.123Z,6.32
2023-03-12T19:02:47.833Z,6.32
2023-03-12T19:05:19.506Z,6.34
2023-03-12T19:07:50.235Z,6.35
2023-03-12T19:10:21.121Z,6.36
2023-03-12T19:12:53.852Z,6.37
2023-03-12T19:15:26.240Z,6.31
2023-03-12T19:17:58.428Z,6.43
2023-03-12T19:20:29.232Z,6.47
2023-03-12T19:22:59.958Z,6.52
2023-03-12T19:25:32.112Z,6.54
2023-03-12T19:28:02.724Z,6.56
2023-03-12T19:30:33.578Z,6.57
2023-03-12T19:33:04.516Z,6.59
2023-03-12T19:35:38.292Z,6.60
2023-03-12T19:38:09.142Z,6.63
2023-03-12T19:40:39.831Z,6.64
2023-03-12T19:43:10.548Z,6.67
2023-03-12T19:45:41.213Z,6.68
2023-03-12T19:48:11.879Z,6.70
2023-03-12T19:50:44.089Z,6.73
2023-03-12T19:53:15.350Z,6.74
2023-03-12T19:55:49.407Z,6.76
2023-03-12T19:58:20.272Z,6.78
2023-03-12T20:00:51.385Z,6.79
2023-03-12T20:03:23.108Z,6.81
2023-03-12T20:05:54.144Z,6.83
2023-03-12T20:08:27.872Z,6.83
2023-03-12T20:11:06.568Z,6.85
2023-03-12T20:13:38.778Z,6.85
2023-03-12T20:16:12.504Z,6.86
2023-03-12T20:18:43.307Z,6.87
2023-03-12T20:21:14.255Z,6.88
2023-03-12T20:23:44.955Z,6.89
2023-03-12T20:26:15.893Z,6.91
2023-03-12T20:28:46.597Z,6.91
2023-03-12T20:31:18.265Z,6.93
2023-03-12T20:33:48.964Z,6.95
2023-03-12T20:36:19.726Z,6.96
2023-03-12T20:38:51.938Z,6.97
2023-03-12T20:41:22.674Z,6.97
2023-03-12T20:43:57.612Z,6.99
2023-03-12T20:46:28.896Z,7.00
2023-03-12T20:48:59.846Z,7.01
2023-03-12T20:51:30.487Z,6.93
2023-03-12T20:54:01.365Z,7.01
2023-03-12T20:56:32.069Z,7.02
2023-03-12T20:59:02.846Z,7.03
2023-03-12T21:01:33.602Z,7.03
2023-03-12T21:04:04.500Z,7.04
2023-03-12T21:06:35.381Z,7.05
2023-03-12T21:09:07.283Z,7.06
2023-03-12T21:11:39.760Z,7.07
2023-03-12T21:14:10.809Z,7.07
2023-03-12T21:16:41.449Z,7.08
2023-03-12T21:19:12.065Z,7.07
2023-03-12T21:21:42.761Z,7.07
2023-03-12T21:24:13.369Z,7.04
2023-03-12T21:26:46.410Z,7.09
2023-03-12T21:29:17.175Z,7.09
2023-03-12T21:31:50.165Z,7.08
2023-03-12T21:34:20.907Z,7.08
2023-03-12T21:36:51.578Z,7.08
2023-03-12T21:39:22.992Z,7.09
2023-03-12T21:41:53.616Z,7.11
2023-03-12T21:44:24.410Z,7.13
2023-03-12T21:46:55.194Z,7.15
2023-03-12T21:49:26.044Z,7.18
2023-03-12T21:51:57.558Z,7.19
2023-03-12T21:54:32.691Z,7.20
2023-03-12T21:57:03.814Z,7.20
2023-03-12T21:59:34.627Z,7.27
2023-03-12T22:02:05.372Z,7.36
2023-03-12T22:04:36.190Z,7.40
2023-03-12T22:07:07.126Z,7.43
2023-03-12T22:09:37.935Z,7.44
2023-03-12T22:12:09.464Z,7.50
2023-03-12T22:14:40.130Z,7.60
2023-03-12T22:17:10.848Z,7.72
2023-03-12T22:19:42.115Z,7.83
2023-03-12T22:22:12.955Z,7.90
2023-03-12T22:24:43.882Z,7.96
2023-03-12T22:27:14.559Z,8.01
2023-03-12T22:29:45.273Z,8.07
2023-03-12T22:32:16.045Z,8.14
2023-03-12T22:34:46.893Z,8.18
2023-03-12T22:37:17.613Z,8.21
2023-03-12T22:39:48.224Z,8.21
2023-03-12T22:42:18.861Z,8.25
2023-03-12T22:44:49.586Z,8.26
2023-03-12T22:47:20.227Z,8.26
2023-03-12T22:49:52.523Z,8.30
2023-03-12T22:52:23.245Z,8.31
2023-03-12T22:54:54.068Z,8.32
2023-03-12T22:57:24.765Z,8.32
2023-03-12T22:59:55.450Z,8.33
2023-03-12T23:02:26.198Z,8.33
2023-03-12T23:04:57.042Z,8.34
2023-03-12T23:07:27.870Z,8.35
2023-03-12T23:09:58.505Z,8.36
2023-03-12T23:12:29.757Z,8.36
2023-03-12T23:15:00.713Z,8.38
2023-03-12T23:17:31.506Z,8.42
2023-03-12T23:20:02.179Z,8.42
2023-03-12T23:22:33.846Z,8.44
2023-03-12T23:25:04.691Z,8.45
2023-03-12T23:27:35.394Z,8.45
2023-03-12T23:30:07.368Z,8.45
2023-03-12T23:32:38.705Z,8.44
2023-03-12T23:35:10.410Z,8.45
2023-03-12T23:37:41.149Z,8.44
2023-03-12T23:40:16.827Z,8.45
2023-03-12T23:42:47.633Z,8.45
2023-03-12T23:45:18.584Z,8.44
2023-03-12T23:47:49.309Z,8.45
2023-03-12T23:50:20.229Z,8.46
2023-03-12T23:52:50.802Z,8.47
2023-03-12T23:55:22.831Z,8.45
2023-03-12T23:57:53.587Z,8.51
